Terminal Aerodrome Forecast
Issued by NWS Springfield, MO

Home | Current Version | Previous Version | Text Only | Print | Product List | Glossary On
Versions: 1 2 3 4 5 6 7 8 9 10 11 12 13 14 15 16 17 18 19 20 21 22 23
000
FTUS43 KSGF 161120
TAFSGF
TAF
KSGF 161120Z 1612/1712 32008KT P6SM SCT250
     FM170000 32006KT P6SM BKN060
     FM170600 31004KT P6SM SCT050
     FM171100 VRB03KT P6SM FEW150=

USA.gov is the U.S. government's official web portal to all federal, state and local government web resources and services.